Time;durP1;ratioP1;P1;durP2;ratioP2;P2;SDS_P1;SDS_P2;PMS_P1;PMS_P2;Temp;Humidity;BMP_temperature;BMP_pressure;BME280_temperature;BME280_humidity;BME280_pressure;Samples;Min_cycle;Max_cycle;Signal;HPM_P1;HPM_P2
2022/11/25 00:01:43;;;;;;;18.13;14.32;;;;;;;;;;5079768;28;20023;-72
2022/11/25 00:04:09;;;;;;;15.35;11.85;;;;;;;;;;5079994;28;20393;-72
2022/11/25 00:06:34;;;;;;;11.18;9.98;;;;;;;;;;5079324;28;20034;-73
2022/11/25 00:09:05;;;;;;;11.18;9.68;;;;;;;;;;5071780;28;20046;-72
2022/11/25 00:11:30;;;;;;;18.55;14.88;;;;;;;;;;5079480;28;21198;-72
2022/11/25 00:13:56;;;;;;;16.08;14.30;;;;;;;;;;5065048;28;20032;-73
2022/11/25 00:16:23;;;;;;;18.08;14.98;;;;;;;;;;5083088;28;20024;-71
2022/11/25 00:18:52;;;;;;;21.15;17.23;;;;;;;;;;5080152;28;20043;-72
2022/11/25 00:21:18;;;;;;;18.35;15.95;;;;;;;;;;5080224;28;20039;-72
2022/11/25 00:23:44;;;;;;;16.63;14.48;;;;;;;;;;5080860;28;20032;-72
2022/11/25 00:26:09;;;;;;;21.38;17.75;;;;;;;;;;5081683;28;20035;-70
2022/11/25 00:28:34;;;;;;;69.22;46.13;;;;;;;;;;5080335;28;20081;-72
2022/11/25 00:31:10;;;;;;;47.83;34.30;;;;;;;;;;5080027;28;20024;-71
2022/11/25 00:33:36;;;;;;;23.20;17.67;;;;;;;;;;5078740;28;20020;-71
2022/11/25 00:36:02;;;;;;;29.02;23.52;;;;;;;;;;5080807;28;20102;-72
2022/11/25 00:38:28;;;;;;;24.30;18.85;;;;;;;;;;5078417;28;20030;-74
2022/11/25 00:46:21;;;;;;;23.88;17.30;;;;;;;;;;5079499;28;20043;-71
2022/11/25 00:48:46;;;;;;;28.88;20.83;;;;;;;;;;5081338;28;20036;-72
2022/11/25 00:51:12;;;;;;;16.05;12.80;;;;;;;;;;5081952;28;20027;-72
2022/11/25 00:53:37;;;;;;;18.05;12.65;;;;;;;;;;5078977;28;20039;-72
2022/11/25 00:56:14;;;;;;;13.85;10.07;;;;;;;;;;5082503;28;20038;-73
2022/11/25 00:58:43;;;;;;;14.07;11.43;;;;;;;;;;5080368;28;20351;-72
2022/11/25 01:01:08;;;;;;;19.35;11.60;;;;;;;;;;5079680;28;20074;-71
2022/11/25 01:03:35;;;;;;;16.98;12.65;;;;;;;;;;5079302;28;20052;-72
2022/11/25 01:06:02;;;;;;;14.45;11.70;;;;;;;;;;5078760;28;20111;-71
2022/11/25 01:08:30;;;;;;;17.65;10.65;;;;;;;;;;5080063;28;20039;-71
2022/11/25 01:11:04;;;;;;;12.63;10.10;;;;;;;;;;5079507;28;20027;-72
2022/11/25 01:13:29;;;;;;;11.95;10.15;;;;;;;;;;5081573;28;20042;-73
2022/11/25 01:15:55;;;;;;;12.77;9.93;;;;;;;;;;5060959;28;20020;-71
2022/11/25 01:18:20;;;;;;;11.32;10.05;;;;;;;;;;5078326;28;20075;-71
2022/11/25 01:20:45;;;;;;;10.90;8.13;;;;;;;;;;5081339;28;20470;-71
2022/11/25 01:23:11;;;;;;;7.32;6.55;;;;;;;;;;5080817;28;20023;-71
2022/11/25 01:25:37;;;;;;;8.15;7.35;;;;;;;;;;5077843;28;20037;-73
2022/11/25 01:28:02;;;;;;;8.45;7.05;;;;;;;;;;5079027;28;20028;-72
2022/11/25 01:30:28;;;;;;;9.50;6.88;;;;;;;;;;5078249;28;20123;-72
2022/11/25 01:32:53;;;;;;;23.42;14.73;;;;;;;;;;5078574;28;20028;-71
2022/11/25 01:35:18;;;;;;;5.05;4.55;;;;;;;;;;5080431;28;20036;-71
2022/11/25 01:37:44;;;;;;;5.90;4.90;;;;;;;;;;5078535;28;20503;-72
2022/11/25 01:40:09;;;;;;;4.70;4.18;;;;;;;;;;5078182;28;20024;-72
2022/11/25 01:42:41;;;;;;;5.75;5.03;;;;;;;;;;5079598;28;20024;-73
2022/11/25 01:45:25;;;;;;;6.68;5.28;;;;;;;;;;5077051;28;20036;-70
2022/11/25 01:47:52;;;;;;;5.82;5.22;;;;;;;;;;5078516;28;20028;-72
2022/11/25 01:50:19;;;;;;;9.75;6.18;;;;;;;;;;5079730;28;20061;-71
2022/11/25 01:52:47;;;;;;;5.53;4.70;;;;;;;;;;5081318;28;20016;-71
2022/11/25 01:55:14;;;;;;;5.47;4.80;;;;;;;;;;5078548;28;20032;-72
2022/11/25 01:57:44;;;;;;;7.95;4.55;;;;;;;;;;5081308;28;20080;-72
2022/11/25 02:00:10;;;;;;;5.05;4.55;;;;;;;;;;5077505;28;20340;-72
2022/11/25 02:02:36;;;;;;;5.68;4.85;;;;;;;;;;5080127;28;20020;-71
2022/11/25 02:05:03;;;;;;;4.30;3.90;;;;;;;;;;5081057;28;20738;-71
2022/11/25 02:07:31;;;;;;;4.00;3.53;;;;;;;;;;5078186;28;20028;-72
2022/11/25 02:09:57;;;;;;;4.63;4.20;;;;;;;;;;5079697;28;20107;-71
2022/11/25 02:12:23;;;;;;;4.13;3.60;;;;;;;;;;5077409;28;20451;-72
2022/11/25 02:14:49;;;;;;;5.00;3.97;;;;;;;;;;5078345;28;20115;-71
2022/11/25 02:17:15;;;;;;;4.65;4.05;;;;;;;;;;5079958;28;20028;-73
2022/11/25 02:19:46;;;;;;;4.38;3.55;;;;;;;;;;5080021;28;20112;-72
2022/11/25 02:22:18;;;;;;;5.93;4.63;;;;;;;;;;5080060;28;20044;-71
2022/11/25 02:24:50;;;;;;;4.30;3.67;;;;;;;;;;5078541;28;20372;-72
2022/11/25 02:27:16;;;;;;;4.45;3.65;;;;;;;;;;5075873;28;20074;-73
2022/11/25 02:29:42;;;;;;;3.40;3.10;;;;;;;;;;5079878;28;20047;-72
2022/11/25 02:32:07;;;;;;;4.53;3.92;;;;;;;;;;5079267;28;20052;-71
2022/11/25 02:34:32;;;;;;;7.88;4.80;;;;;;;;;;5080472;28;20051;-73
2022/11/25 02:36:58;;;;;;;7.18;5.55;;;;;;;;;;5078149;28;20424;-73
2022/11/25 02:39:24;;;;;;;13.65;10.15;;;;;;;;;;5079444;28;20024;-72
2022/11/25 02:41:52;;;;;;;12.65;9.55;;;;;;;;;;5080951;28;20628;-73
2022/11/25 02:44:18;;;;;;;7.20;5.60;;;;;;;;;;5081266;28;20062;-70
2022/11/25 02:46:43;;;;;;;3.40;3.10;;;;;;;;;;5078448;28;20047;-71
2022/11/25 02:49:08;;;;;;;4.88;3.38;;;;;;;;;;5078438;28;20035;-71
2022/11/25 02:51:34;;;;;;;2.95;2.72;;;;;;;;;;5078970;28;20027;-71
2022/11/25 02:54:00;;;;;;;4.13;3.72;;;;;;;;;;5078227;28;20016;-72
2022/11/25 02:56:27;;;;;;;3.78;3.42;;;;;;;;;;5080347;28;20514;-72
2022/11/25 02:58:52;;;;;;;3.33;3.03;;;;;;;;;;5079297;28;20389;-72
2022/11/25 03:01:18;;;;;;;3.10;2.85;;;;;;;;;;5077191;28;20028;-72
2022/11/25 03:03:43;;;;;;;6.15;5.55;;;;;;;;;;5080523;28;21352;-73
2022/11/25 03:06:09;;;;;;;7.22;6.18;;;;;;;;;;5080369;28;20077;-72
2022/11/25 03:08:35;;;;;;;6.35;5.47;;;;;;;;;;5079985;28;20462;-71
2022/11/25 03:11:00;;;;;;;7.20;6.20;;;;;;;;;;5081170;28;20028;-72
2022/11/25 03:13:25;;;;;;;5.82;4.95;;;;;;;;;;5080427;28;20115;-74
2022/11/25 03:15:51;;;;;;;6.10;5.50;;;;;;;;;;5077716;28;20963;-72
2022/11/25 03:18:16;;;;;;;6.90;6.22;;;;;;;;;;5081617;28;20107;-71
2022/11/25 03:20:41;;;;;;;13.85;11.30;;;;;;;;;;5080763;28;20047;-71
2022/11/25 03:23:07;;;;;;;5.90;5.40;;;;;;;;;;5080601;28;20028;-72
2022/11/25 03:25:33;;;;;;;7.03;5.75;;;;;;;;;;5078467;28;20386;-71
2022/11/25 03:27:59;;;;;;;5.15;4.65;;;;;;;;;;5080167;28;20074;-72
2022/11/25 03:30:25;;;;;;;6.80;5.93;;;;;;;;;;5080182;28;21129;-72
2022/11/25 03:32:51;;;;;;;8.90;6.15;;;;;;;;;;5077590;28;20016;-72
2022/11/25 03:35:16;;;;;;;8.27;6.07;;;;;;;;;;5078828;28;20496;-72
2022/11/25 03:37:42;;;;;;;14.18;11.23;;;;;;;;;;5080215;28;20066;-72
2022/11/25 03:40:09;;;;;;;28.08;21.42;;;;;;;;;;5082181;28;20108;-73
2022/11/25 03:42:34;;;;;;;30.75;21.88;;;;;;;;;;5078917;28;20030;-73
2022/11/25 03:45:00;;;;;;;24.95;16.58;;;;;;;;;;5080029;28;20032;-72
2022/11/25 03:47:25;;;;;;;32.83;22.17;;;;;;;;;;5080938;28;20035;-71
2022/11/25 03:49:51;;;;;;;39.78;24.48;;;;;;;;;;5078812;28;20023;-72
2022/11/25 03:52:16;;;;;;;35.20;23.95;;;;;;;;;;5079800;28;20107;-72
2022/11/25 03:54:41;;;;;;;18.63;14.55;;;;;;;;;;5079813;28;20103;-72
2022/11/25 03:57:07;;;;;;;11.15;9.23;;;;;;;;;;5080912;28;20028;-72
2022/11/25 03:59:32;;;;;;;7.97;5.95;;;;;;;;;;5079923;28;20055;-72
2022/11/25 04:01:58;;;;;;;5.40;4.38;;;;;;;;;;5080466;28;20047;-72
2022/11/25 04:04:23;;;;;;;7.68;6.88;;;;;;;;;;5080958;28;20075;-73
2022/11/25 04:06:49;;;;;;;9.00;7.53;;;;;;;;;;5078904;28;20052;-71
2022/11/25 04:09:14;;;;;;;10.05;7.93;;;;;;;;;;5080052;28;20012;-72
2022/11/25 04:14:24;;;;;;;11.55;9.32;;;;;;;;;;5082774;28;20039;-72
2022/11/25 04:16:50;;;;;;;27.25;19.17;;;;;;;;;;5083820;28;20805;-72
2022/11/25 04:19:16;;;;;;;11.57;8.70;;;;;;;;;;5081796;28;20040;-72
2022/11/25 04:21:41;;;;;;;12.52;9.20;;;;;;;;;;5082057;28;20031;-73
2022/11/25 04:24:07;;;;;;;5.63;5.13;;;;;;;;;;5084588;28;20047;-72
2022/11/25 04:26:32;;;;;;;6.00;5.07;;;;;;;;;;5083288;28;20016;-74
2022/11/25 04:28:57;;;;;;;5.93;5.30;;;;;;;;;;5065643;28;20508;-71
2022/11/25 04:31:23;;;;;;;6.43;5.30;;;;;;;;;;5083466;28;20095;-72
2022/11/25 04:33:48;;;;;;;16.95;13.45;;;;;;;;;;5083055;28;20066;-71
2022/11/25 04:36:13;;;;;;;12.27;10.02;;;;;;;;;;5082925;28;20021;-73
2022/11/25 04:38:39;;;;;;;18.73;13.40;;;;;;;;;;5082616;28;20127;-74
2022/11/25 04:41:04;;;;;;;7.53;6.82;;;;;;;;;;5080597;28;20355;-73
2022/11/25 04:43:30;;;;;;;16.65;13.38;;;;;;;;;;5083635;28;20042;-71
2022/11/25 04:45:55;;;;;;;13.55;12.15;;;;;;;;;;5081759;28;20035;-73
2022/11/25 04:48:21;;;;;;;15.68;13.32;;;;;;;;;;5081597;28;20036;-72
2022/11/25 04:50:47;;;;;;;10.23;8.45;;;;;;;;;;5083130;28;20035;-71
2022/11/25 04:53:12;;;;;;;9.70;8.48;;;;;;;;;;5081267;28;20516;-71
2022/11/25 04:55:37;;;;;;;7.60;6.80;;;;;;;;;;5079798;28;20028;-72
2022/11/25 04:58:03;;;;;;;8.18;7.32;;;;;;;;;;5082526;28;20024;-71
2022/11/25 05:00:28;;;;;;;9.95;8.00;;;;;;;;;;5081917;28;20039;-73
2022/11/25 05:02:54;;;;;;;16.75;11.68;;;;;;;;;;5083186;28;20020;-72
2022/11/25 05:05:19;;;;;;;208.38;141.75;;;;;;;;;;5082364;28;20105;-71
2022/11/25 05:07:45;;;;;;;52.40;36.55;;;;;;;;;;5082991;28;20076;-73
2022/11/25 05:10:10;;;;;;;18.20;16.00;;;;;;;;;;5081886;28;20031;-72
2022/11/25 05:12:36;;;;;;;19.45;16.45;;;;;;;;;;5081795;28;20371;-71
2022/11/25 05:15:03;;;;;;;13.68;9.98;;;;;;;;;;5081777;28;20035;-72
2022/11/25 05:17:29;;;;;;;10.57;8.60;;;;;;;;;;5081753;28;20359;-72
2022/11/25 05:19:55;;;;;;;14.45;10.73;;;;;;;;;;5079497;28;20649;-71
2022/11/25 05:22:22;;;;;;;11.35;9.23;;;;;;;;;;5077947;28;20570;-71
2022/11/25 05:24:47;;;;;;;8.63;6.65;;;;;;;;;;5077474;28;20028;-71
2022/11/25 05:27:12;;;;;;;10.70;7.20;;;;;;;;;;5081248;28;20035;-71
2022/11/25 05:29:38;;;;;;;9.70;8.40;;;;;;;;;;5081193;28;20024;-71
2022/11/25 05:32:04;;;;;;;11.02;9.18;;;;;;;;;;5078429;28;20028;-72
2022/11/25 05:34:29;;;;;;;13.05;10.00;;;;;;;;;;5080173;28;20040;-71
2022/11/25 05:36:54;;;;;;;16.38;12.68;;;;;;;;;;5081958;28;20389;-71
2022/11/25 05:39:20;;;;;;;21.55;17.02;;;;;;;;;;5082364;28;20047;-73
2022/11/25 05:41:45;;;;;;;8.30;7.43;;;;;;;;;;5081711;28;20028;-71
2022/11/25 05:44:10;;;;;;;9.90;7.88;;;;;;;;;;5081392;28;20823;-71
2022/11/25 05:46:36;;;;;;;8.73;7.82;;;;;;;;;;5081287;28;20535;-71
2022/11/25 05:49:01;;;;;;;12.80;10.43;;;;;;;;;;5063758;28;20036;-72
2022/11/25 05:51:27;;;;;;;10.35;8.43;;;;;;;;;;5081707;28;20044;-71
2022/11/25 05:53:53;;;;;;;12.60;10.82;;;;;;;;;;5075628;28;20046;-72
2022/11/25 05:56:18;;;;;;;24.20;18.23;;;;;;;;;;5078736;28;20032;-72
2022/11/25 05:58:43;;;;;;;11.98;10.65;;;;;;;;;;5080511;28;20031;-73
2022/11/25 06:01:10;;;;;;;11.70;10.50;;;;;;;;;;5078406;28;20050;-72
2022/11/25 06:03:35;;;;;;;14.52;11.63;;;;;;;;;;5079793;28;20019;-71
2022/11/25 06:06:01;;;;;;;13.68;11.73;;;;;;;;;;5080162;28;20035;-71
2022/11/25 06:08:27;;;;;;;12.10;10.43;;;;;;;;;;5080577;28;20102;-72
2022/11/25 06:10:52;;;;;;;13.30;11.55;;;;;;;;;;5079785;28;20019;-72
2022/11/25 06:13:18;;;;;;;13.50;12.10;;;;;;;;;;5080968;28;20370;-73
2022/11/25 06:15:43;;;;;;;12.60;11.18;;;;;;;;;;5081368;28;20182;-72
2022/11/25 06:18:09;;;;;;;17.23;13.57;;;;;;;;;;5078319;28;20904;-70
2022/11/25 06:20:35;;;;;;;18.80;15.18;;;;;;;;;;5079127;28;20127;-71
2022/11/25 06:23:00;;;;;;;20.17;16.10;;;;;;;;;;5080378;28;20512;-71
2022/11/25 06:25:25;;;;;;;27.42;19.40;;;;;;;;;;5080069;28;20042;-72
2022/11/25 06:27:51;;;;;;;23.08;19.83;;;;;;;;;;5080813;28;20031;-71
2022/11/25 06:30:17;;;;;;;25.05;20.80;;;;;;;;;;5077477;28;20036;-73
2022/11/25 06:32:42;;;;;;;18.45;16.05;;;;;;;;;;5077786;28;20068;-71
2022/11/25 06:35:08;;;;;;;27.70;20.17;;;;;;;;;;5078769;28;20085;-71
2022/11/25 06:37:33;;;;;;;24.48;19.70;;;;;;;;;;5077527;28;20548;-71
2022/11/25 06:39:59;;;;;;;40.17;27.15;;;;;;;;;;5077247;28;20051;-72
2022/11/25 06:42:24;;;;;;;50.03;33.05;;;;;;;;;;5077492;28;20039;-73
2022/11/25 06:44:49;;;;;;;35.75;27.58;;;;;;;;;;5078740;28;20032;-72
2022/11/25 06:47:15;;;;;;;54.05;38.42;;;;;;;;;;5077983;28;20023;-72
2022/11/25 06:49:40;;;;;;;33.10;23.23;;;;;;;;;;5079963;28;20487;-73
2022/11/25 06:52:06;;;;;;;23.20;19.27;;;;;;;;;;5078458;28;20028;-72
2022/11/25 06:54:31;;;;;;;26.63;23.83;;;;;;;;;;5079862;28;20027;-72
2022/11/25 06:56:57;;;;;;;52.22;43.55;;;;;;;;;;5080326;28;20035;-72
2022/11/25 06:59:22;;;;;;;39.55;33.97;;;;;;;;;;5077967;28;20028;-73
2022/11/25 07:01:48;;;;;;;56.95;43.13;;;;;;;;;;5076617;28;20093;-71
2022/11/25 07:04:13;;;;;;;36.10;29.38;;;;;;;;;;5080136;28;20130;-72
2022/11/25 07:06:38;;;;;;;21.75;18.30;;;;;;;;;;5079685;28;20098;-71
2022/11/25 07:09:04;;;;;;;22.83;18.73;;;;;;;;;;5080650;28;20059;-71
2022/11/25 07:11:30;;;;;;;17.73;14.98;;;;;;;;;;5078491;28;20035;-71
2022/11/25 07:13:57;;;;;;;14.32;12.13;;;;;;;;;;5077124;28;21189;-70
2022/11/25 07:16:23;;;;;;;30.83;24.42;;;;;;;;;;5077859;28;20039;-71
2022/11/25 07:18:48;;;;;;;21.20;17.77;;;;;;;;;;5078368;28;20028;-70
2022/11/25 07:21:15;;;;;;;19.13;17.08;;;;;;;;;;5076786;28;20366;-70
2022/11/25 07:23:41;;;;;;;15.48;13.88;;;;;;;;;;5077907;28;20039;-70
2022/11/25 07:26:07;;;;;;;11.77;10.57;;;;;;;;;;5078907;28;20111;-71
2022/11/25 07:28:32;;;;;;;13.23;11.90;;;;;;;;;;5078536;28;20217;-71
2022/11/25 07:31:08;;;;;;;16.60;14.38;;;;;;;;;;5078482;28;20141;-71
2022/11/25 07:33:34;;;;;;;15.32;12.55;;;;;;;;;;5077986;28;20032;-71
2022/11/25 07:36:04;;;;;;;18.23;16.33;;;;;;;;;;5073442;28;20332;-71
2022/11/25 07:38:29;;;;;;;;;;;;;;;;;;5079222;28;20031;-73
2022/11/25 07:40:54;;;;;;;13.77;12.37;;;;;;;;;;5075217;28;20343;-71
2022/11/25 07:43:20;;;;;;;21.45;18.27;;;;;;;;;;5078744;28;20572;-70
2022/11/25 07:45:45;;;;;;;26.13;23.50;;;;;;;;;;5081950;28;20039;-71
2022/11/25 07:48:10;;;;;;;22.55;18.85;;;;;;;;;;5083154;28;20439;-72
2022/11/25 07:50:37;;;;;;;46.63;32.70;;;;;;;;;;5083565;28;20347;-73
2022/11/25 07:53:02;;;;;;;37.88;27.10;;;;;;;;;;5081698;28;20042;-72
2022/11/25 07:55:28;;;;;;;28.17;21.60;;;;;;;;;;5081798;28;20032;-71
2022/11/25 07:57:53;;;;;;;19.95;17.77;;;;;;;;;;5082813;28;20413;-72
2022/11/25 08:00:19;;;;;;;22.45;19.50;;;;;;;;;;5082916;28;20032;-72
2022/11/25 08:02:44;;;;;;;13.60;12.20;;;;;;;;;;5083306;28;20119;-72
2022/11/25 08:05:10;;;;;;;21.05;18.88;;;;;;;;;;5082286;28;20082;-71
2022/11/25 08:07:36;;;;;;;32.05;26.30;;;;;;;;;;5082433;28;20024;-71
2022/11/25 08:10:01;;;;;;;31.92;25.25;;;;;;;;;;5082849;28;20038;-71
2022/11/25 08:12:26;;;;;;;53.67;39.10;;;;;;;;;;5078758;28;20103;-71
2022/11/25 08:14:52;;;;;;;32.30;25.80;;;;;;;;;;5082350;28;20040;-73
2022/11/25 08:17:17;;;;;;;22.52;18.73;;;;;;;;;;5080538;28;20020;-73
2022/11/25 08:19:42;;;;;;;22.67;20.02;;;;;;;;;;5081192;28;20048;-71
2022/11/25 08:22:08;;;;;;;25.25;20.63;;;;;;;;;;5082708;28;20028;-71
2022/11/25 08:24:33;;;;;;;20.85;17.58;;;;;;;;;;5082136;28;20028;-71
2022/11/25 08:27:00;;;;;;;22.42;17.63;;;;;;;;;;5082054;28;20436;-70
2022/11/25 08:29:25;;;;;;;23.27;18.42;;;;;;;;;;5082522;28;20016;-72
2022/11/25 08:31:51;;;;;;;18.90;15.65;;;;;;;;;;5081684;28;20077;-71
2022/11/25 08:34:20;;;;;;;29.10;23.02;;;;;;;;;;5081306;28;20028;-72
2022/11/25 08:36:45;;;;;;;30.27;23.27;;;;;;;;;;5079523;28;20028;-71
2022/11/25 08:39:11;;;;;;;23.48;17.92;;;;;;;;;;5080482;28;20318;-73
2022/11/25 08:41:37;;;;;;;23.00;17.35;;;;;;;;;;5064639;28;20039;-73
2022/11/25 08:44:03;;;;;;;35.20;28.10;;;;;;;;;;5083274;28;20043;-72
2022/11/25 08:46:32;;;;;;;34.33;26.30;;;;;;;;;;5080206;28;20040;-73
2022/11/25 08:48:57;;;;;;;32.38;26.30;;;;;;;;;;5082405;28;20046;-72
2022/11/25 08:51:25;;;;;;;32.72;24.90;;;;;;;;;;5081534;28;20024;-72
2022/11/25 08:53:50;;;;;;;21.88;18.70;;;;;;;;;;5080482;28;20016;-72
2022/11/25 08:56:16;;;;;;;18.42;15.20;;;;;;;;;;5082482;28;20043;-73
2022/11/25 08:58:41;;;;;;;21.65;17.92;;;;;;;;;;5083195;28;20034;-73
2022/11/25 09:01:07;;;;;;;26.20;20.63;;;;;;;;;;5082366;28;20020;-73
2022/11/25 09:03:37;;;;;;;28.70;25.20;;;;;;;;;;5081877;28;20446;-73
2022/11/25 09:06:03;;;;;;;21.48;18.58;;;;;;;;;;5082157;28;20447;-73
2022/11/25 09:08:30;;;;;;;32.88;29.30;;;;;;;;;;5082267;28;20343;-73
2022/11/25 09:10:55;;;;;;;30.25;24.20;;;;;;;;;;5082545;28;20120;-73
2022/11/25 09:13:20;;;;;;;32.10;27.25;;;;;;;;;;5082365;28;20107;-72
2022/11/25 09:15:46;;;;;;;29.38;24.65;;;;;;;;;;5081601;28;20027;-73
2022/11/25 09:18:11;;;;;;;25.45;21.50;;;;;;;;;;5081615;28;20027;-72
2022/11/25 09:20:38;;;;;;;23.65;20.38;;;;;;;;;;5081493;28;20106;-73
2022/11/25 09:23:04;;;;;;;32.40;25.25;;;;;;;;;;5081906;28;20028;-71
2022/11/25 09:25:30;;;;;;;26.42;21.83;;;;;;;;;;5080144;28;20024;-71
2022/11/25 09:27:55;;;;;;;24.08;21.30;;;;;;;;;;5078809;28;20348;-71
2022/11/25 09:30:21;;;;;;;30.85;25.88;;;;;;;;;;5081114;28;20035;-71
2022/11/25 09:32:48;;;;;;;22.40;19.95;;;;;;;;;;5078875;28;20020;-72
2022/11/25 09:35:13;;;;;;;24.95;20.67;;;;;;;;;;5081371;28;20332;-72
2022/11/25 09:37:38;;;;;;;23.45;20.90;;;;;;;;;;5081195;28;20035;-70
2022/11/25 09:40:05;;;;;;;34.00;25.13;;;;;;;;;;5079057;28;20050;-71
2022/11/25 09:48:29;;;;;;;21.75;15.95;;;;;;;;;;5081414;28;20047;-71
2022/11/25 09:51:00;;;;;;;38.00;27.27;;;;;;;;;;5081842;28;20036;-70
2022/11/25 09:53:25;;;;;;;18.75;15.80;;;;;;;;;;5079805;28;21124;-71
2022/11/25 09:55:52;;;;;;;23.17;20.77;;;;;;;;;;5081799;28;20030;-71
2022/11/25 09:58:30;;;;;;;56.47;37.28;;;;;;;;;;5079458;28;20041;-71
2022/11/25 10:00:56;;;;;;;23.80;19.15;;;;;;;;;;5079435;28;20427;-71
2022/11/25 10:03:32;;;;;;;33.25;29.35;;;;;;;;;;5077385;28;20056;-71
2022/11/25 10:06:05;;;;;;;21.10;18.25;;;;;;;;;;5077504;28;20110;-72
2022/11/25 10:08:38;;;;;;;16.67;14.88;;;;;;;;;;5077721;28;20027;-70
2022/11/25 10:11:09;;;;;;;14.93;13.43;;;;;;;;;;5078442;28;20456;-71
2022/11/25 10:13:38;;;;;;;21.77;18.50;;;;;;;;;;5078880;28;20350;-72
2022/11/25 10:16:06;;;;;;;17.73;15.93;;;;;;;;;;5080343;28;20063;-73
2022/11/25 10:18:43;;;;;;;21.90;18.30;;;;;;;;;;5080762;28;20024;-73
2022/11/25 10:21:10;;;;;;;19.73;16.05;;;;;;;;;;5079464;28;20075;-73
2022/11/25 10:23:37;;;;;;;16.02;14.38;;;;;;;;;;5080456;28;20024;-72
2022/11/25 10:26:13;;;;;;;13.82;12.48;;;;;;;;;;5077565;28;20032;-72
2022/11/25 10:28:39;;;;;;;19.25;17.25;;;;;;;;;;5078817;28;20027;-71
2022/11/25 10:31:25;;;;;;;22.98;18.35;;;;;;;;;;5077655;28;20032;-72
2022/11/25 10:33:52;;;;;;;28.23;21.42;;;;;;;;;;5066832;28;20040;-71
2022/11/25 10:36:22;;;;;;;17.30;15.60;;;;;;;;;;5079406;28;20143;-72
2022/11/25 10:38:51;;;;;;;26.02;23.10;;;;;;;;;;5076994;28;20027;-71
2022/11/25 10:41:17;;;;;;;36.00;32.10;;;;;;;;;;5077803;28;20355;-71
2022/11/25 10:43:45;;;;;;;27.95;24.73;;;;;;;;;;5076759;28;20020;-70
2022/11/25 10:46:13;;;;;;;27.85;22.42;;;;;;;;;;5077437;28;20093;-71
2022/11/25 10:48:41;;;;;;;30.33;26.80;;;;;;;;;;5077692;28;20015;-71
2022/11/25 10:51:16;;;;;;;23.33;20.70;;;;;;;;;;5078337;28;20032;-72
2022/11/25 10:54:01;;;;;;;34.60;29.48;;;;;;;;;;5072994;28;20040;-70
2022/11/25 10:56:26;;;;;;;22.33;19.20;;;;;;;;;;5078788;28;20347;-71
2022/11/25 10:58:53;;;;;;;19.95;17.92;;;;;;;;;;5078748;28;20035;-72
2022/11/25 11:01:18;;;;;;;67.88;53.67;;;;;;;;;;5076916;28;20530;-73
2022/11/25 11:03:45;;;;;;;24.75;21.88;;;;;;;;;;5079425;28;20028;-71
2022/11/25 11:06:31;;;;;;;27.73;24.05;;;;;;;;;;5078832;28;20085;-71
2022/11/25 11:08:56;;;;;;;33.88;28.60;;;;;;;;;;5078752;28;20047;-72
2022/11/25 11:11:22;;;;;;;28.10;25.13;;;;;;;;;;5078962;28;20024;-71
2022/11/25 11:13:49;;;;;;;21.55;19.25;;;;;;;;;;5078712;28;20028;-72
2022/11/25 11:16:20;;;;;;;47.08;38.33;;;;;;;;;;5077975;28;20354;-71
2022/11/25 11:18:46;;;;;;;24.67;21.40;;;;;;;;;;5078919;28;20028;-72
2022/11/25 11:21:21;;;;;;;34.65;30.02;;;;;;;;;;5083183;28;20059;-72
2022/11/25 11:23:51;;;;;;;29.13;25.73;;;;;;;;;;5080623;28;20016;-72
2022/11/25 11:26:32;;;;;;;27.08;24.15;;;;;;;;;;5083412;28;20105;-73
2022/11/25 11:29:27;;;;;;;37.05;31.15;;;;;;;;;;5080025;28;20040;-71
2022/11/25 11:31:57;;;;;;;32.92;29.40;;;;;;;;;;5021160;28;20048;-71
2022/11/25 11:34:31;;;;;;;37.75;33.67;;;;;;;;;;5020763;28;20400;-71
2022/11/25 11:37:14;;;;;;;34.22;29.65;;;;;;;;;;5020473;28;20116;-71
2022/11/25 11:39:39;;;;;;;37.95;33.10;;;;;;;;;;5024673;28;20862;-72
2022/11/25 11:42:14;;;;;;;29.20;24.30;;;;;;;;;;5017874;28;20087;-72
2022/11/25 11:44:49;;;;;;;30.52;27.10;;;;;;;;;;5027469;28;20029;-72
2022/11/25 11:47:29;;;;;;;29.45;22.63;;;;;;;;;;5026197;28;20453;-72
2022/11/25 11:50:03;;;;;;;31.48;23.42;;;;;;;;;;5022010;28;20060;-71
2022/11/25 11:52:47;;;;;;;40.38;30.33;;;;;;;;;;5021683;28;20069;-71
2022/11/25 11:55:12;;;;;;;30.00;23.58;;;;;;;;;;5018614;28;20041;-71
2022/11/25 11:57:51;;;;;;;24.70;22.02;;;;;;;;;;5021182;28;20415;-71
2022/11/25 12:00:17;;;;;;;35.03;27.83;;;;;;;;;;5024197;28;20034;-70
2022/11/25 12:02:53;;;;;;;27.38;21.48;;;;;;;;;;5032305;28;20261;-72
2022/11/25 12:05:23;;;;;;;22.45;18.17;;;;;;;;;;5017772;28;20072;-71
2022/11/25 12:07:51;;;;;;;19.15;15.77;;;;;;;;;;5051069;28;20035;-71
2022/11/25 12:10:23;;;;;;;40.80;33.03;;;;;;;;;;5081133;28;20027;-72
2022/11/25 12:12:54;;;;;;;22.92;19.98;;;;;;;;;;5080534;28;20027;-71
2022/11/25 12:15:31;;;;;;;19.58;17.48;;;;;;;;;;5078770;28;20080;-70
2022/11/25 12:17:59;;;;;;;29.98;26.65;;;;;;;;;;5080152;28;20317;-70
2022/11/25 12:20:24;;;;;;;19.10;17.13;;;;;;;;;;5080835;28;20048;-71
2022/11/25 12:22:56;;;;;;;18.00;15.68;;;;;;;;;;5079184;28;20395;-72
2022/11/25 12:25:23;;;;;;;29.65;25.83;;;;;;;;;;5080938;28;20038;-71
2022/11/25 12:28:01;;;;;;;21.33;19.05;;;;;;;;;;5081037;28;20393;-71
2022/11/25 12:30:36;;;;;;;17.75;15.93;;;;;;;;;;5081678;28;20409;-72
2022/11/25 12:33:04;;;;;;;16.33;14.63;;;;;;;;;;5078153;28;20359;-71
2022/11/25 12:35:42;;;;;;;24.45;21.33;;;;;;;;;;5080873;28;20048;-71
2022/11/25 12:38:13;;;;;;;20.13;17.52;;;;;;;;;;5080718;28;20432;-72
2022/11/25 12:40:41;;;;;;;25.77;21.90;;;;;;;;;;5081047;28;20036;-71
2022/11/25 12:43:25;;;;;;;19.70;16.70;;;;;;;;;;5083038;28;20032;-72
2022/11/25 12:45:57;;;;;;;24.05;20.08;;;;;;;;;;5079454;28;20449;-70
2022/11/25 12:48:23;;;;;;;27.33;24.27;;;;;;;;;;5080246;28;20337;-72
2022/11/25 12:51:01;;;;;;;23.27;20.83;;;;;;;;;;5079903;28;20028;-72
2022/11/25 12:53:38;;;;;;;20.75;17.88;;;;;;;;;;5078616;28;20466;-72
2022/11/25 12:56:09;;;;;;;18.90;14.50;;;;;;;;;;5081061;28;20502;-72
2022/11/25 12:58:38;;;;;;;19.25;17.30;;;;;;;;;;5079377;28;20339;-72
2022/11/25 13:01:05;;;;;;;22.27;17.25;;;;;;;;;;5080430;28;20351;-71
2022/11/25 13:03:34;;;;;;;17.95;16.05;;;;;;;;;;5081034;28;20023;-71
2022/11/25 13:06:15;;;;;;;9.98;8.95;;;;;;;;;;5079839;28;20700;-70
2022/11/25 13:08:50;;;;;;;12.82;11.23;;;;;;;;;;5080974;28;20091;-72
2022/11/25 13:11:27;;;;;;;28.38;24.23;;;;;;;;;;5079528;28;20024;-71
2022/11/25 13:13:55;;;;;;;39.53;32.85;;;;;;;;;;5076869;28;20032;-72
2022/11/25 13:16:21;;;;;;;11.82;10.73;;;;;;;;;;5082213;28;20506;-72
2022/11/25 13:18:46;;;;;;;9.15;8.35;;;;;;;;;;5076477;28;20034;-72
2022/11/25 13:21:13;;;;;;;10.05;9.05;;;;;;;;;;5075930;28;20051;-71
2022/11/25 13:23:44;;;;;;;21.75;19.10;;;;;;;;;;5082129;28;20067;-71
2022/11/25 13:26:28;;;;;;;15.07;13.68;;;;;;;;;;5077192;28;20032;-72
2022/11/25 13:28:54;;;;;;;16.52;14.82;;;;;;;;;;5063117;28;20024;-71
2022/11/25 13:31:33;;;;;;;21.10;18.15;;;;;;;;;;5080241;28;20058;-71
2022/11/25 13:34:21;;;;;;;17.23;15.45;;;;;;;;;;5078401;28;20024;-71
2022/11/25 13:36:47;;;;;;;17.23;15.50;;;;;;;;;;5068366;28;20035;-71
2022/11/25 13:39:32;;;;;;;15.93;14.23;;;;;;;;;;5079625;28;20032;-71
2022/11/25 13:41:59;;;;;;;17.70;14.98;;;;;;;;;;5076653;28;21154;-71
2022/11/25 13:44:47;;;;;;;12.73;11.43;;;;;;;;;;5079873;28;20160;-72
2022/11/25 13:47:32;;;;;;;11.85;10.73;;;;;;;;;;5079587;28;20095;-71
2022/11/25 13:50:03;;;;;;;11.27;10.15;;;;;;;;;;5068400;28;20032;-72
2022/11/25 13:52:37;;;;;;;22.55;20.10;;;;;;;;;;5078759;28;20355;-71
2022/11/25 13:55:21;;;;;;;59.42;47.50;;;;;;;;;;5076860;28;20359;-72
2022/11/25 13:57:58;;;;;;;25.17;21.70;;;;;;;;;;5080715;28;20439;-72
2022/11/25 14:00:24;;;;;;;14.23;12.77;;;;;;;;;;5079074;28;20085;-71
2022/11/25 14:02:49;;;;;;;14.35;12.95;;;;;;;;;;5078701;28;20027;-71
2022/11/25 14:05:24;;;;;;;19.42;13.88;;;;;;;;;;5079271;28;20093;-72
2022/11/25 14:08:09;;;;;;;24.00;19.20;;;;;;;;;;5080387;28;20463;-71
2022/11/25 14:10:49;;;;;;;46.88;37.58;;;;;;;;;;5076912;28;20020;-71
2022/11/25 14:13:32;;;;;;;33.53;29.27;;;;;;;;;;5078096;28;20078;-72
2022/11/25 14:16:15;;;;;;;26.48;22.42;;;;;;;;;;5079061;28;20035;-72
2022/11/25 14:18:40;;;;;;;28.77;22.60;;;;;;;;;;5078868;28;20024;-72
2022/11/25 14:21:11;;;;;;;18.38;16.23;;;;;;;;;;5076458;28;20055;-72
2022/11/25 14:23:38;;;;;;;20.75;18.60;;;;;;;;;;5077824;28;20336;-73
2022/11/25 14:26:08;;;;;;;30.48;26.02;;;;;;;;;;5079441;28;20036;-72
2022/11/25 14:28:39;;;;;;;17.35;14.82;;;;;;;;;;5079520;28;20066;-72
2022/11/25 14:31:07;;;;;;;31.00;22.60;;;;;;;;;;5080806;28;20448;-71
2022/11/25 14:33:35;;;;;;;42.92;34.55;;;;;;;;;;5075463;28;20016;-71
2022/11/25 14:36:05;;;;;;;36.35;32.40;;;;;;;;;;5079696;28;20502;-72
2022/11/25 14:38:39;;;;;;;15.02;13.23;;;;;;;;;;5079950;28;20135;-72
2022/11/25 14:41:25;;;;;;;34.30;28.05;;;;;;;;;;5077228;28;20441;-71
2022/11/25 14:44:05;;;;;;;22.95;20.60;;;;;;;;;;5076290;28;20075;-71